sensor_id;sensor_type;location;lat;lon;timestamp;temperature;humidity
37788;DHT22;23627;53.302;-6.362;2023-02-21T00:01:00;11.00;99.90
37788;DHT22;23627;53.302;-6.362;2023-02-21T00:03:45;11.00;99.90
37788;DHT22;23627;53.302;-6.362;2023-02-21T00:06:29;11.00;99.90
37788;DHT22;23627;53.302;-6.362;2023-02-21T00:09:13;11.00;99.90
37788;DHT22;23627;53.302;-6.362;2023-02-21T00:11:57;11.00;99.90
37788;DHT22;23627;53.302;-6.362;2023-02-21T00:14:41;11.00;99.90
37788;DHT22;23627;53.302;-6.362;2023-02-21T00:17:25;11.00;99.90
37788;DHT22;23627;53.302;-6.362;2023-02-21T00:20:10;11.00;99.90
37788;DHT22;23627;53.302;-6.362;2023-02-21T00:25:57;11.00;99.90
37788;DHT22;23627;53.302;-6.362;2023-02-21T00:28:41;11.00;99.90
37788;DHT22;23627;53.302;-6.362;2023-02-21T00:31:25;10.90;99.90
37788;DHT22;23627;53.302;-6.362;2023-02-21T00:34:09;10.90;99.90
37788;DHT22;23627;53.302;-6.362;2023-02-21T00:36:53;11.00;99.90
37788;DHT22;23627;53.302;-6.362;2023-02-21T00:39:38;10.90;99.90
37788;DHT22;23627;53.302;-6.362;2023-02-21T00:42:22;11.00;99.90
37788;DHT22;23627;53.302;-6.362;2023-02-21T00:45:06;10.90;99.90
37788;DHT22;23627;53.302;-6.362;2023-02-21T00:47:50;10.90;99.90
37788;DHT22;23627;53.302;-6.362;2023-02-21T00:50:34;10.90;99.90
37788;DHT22;23627;53.302;-6.362;2023-02-21T00:53:18;10.90;99.90
37788;DHT22;23627;53.302;-6.362;2023-02-21T00:56:03;10.90;99.90
37788;DHT22;23627;53.302;-6.362;2023-02-21T00:58:47;10.90;99.90
37788;DHT22;23627;53.302;-6.362;2023-02-21T01:01:31;10.90;99.90
37788;DHT22;23627;53.302;-6.362;2023-02-21T01:04:15;10.90;99.90
37788;DHT22;23627;53.302;-6.362;2023-02-21T01:07:00;10.90;99.90
37788;DHT22;23627;53.302;-6.362;2023-02-21T01:09:44;10.90;99.90
37788;DHT22;23627;53.302;-6.362;2023-02-21T01:12:28;10.90;99.90
37788;DHT22;23627;53.302;-6.362;2023-02-21T01:15:13;10.90;99.90
37788;DHT22;23627;53.302;-6.362;2023-02-21T01:17:57;10.90;99.90
37788;DHT22;23627;53.302;-6.362;2023-02-21T01:20:41;10.90;99.90
37788;DHT22;23627;53.302;-6.362;2023-02-21T01:23:25;10.90;99.90
37788;DHT22;23627;53.302;-6.362;2023-02-21T01:26:09;10.90;99.90
37788;DHT22;23627;53.302;-6.362;2023-02-21T01:28:54;10.90;99.90
37788;DHT22;23627;53.302;-6.362;2023-02-21T01:31:38;10.90;99.90
37788;DHT22;23627;53.302;-6.362;2023-02-21T01:34:22;10.90;99.90
37788;DHT22;23627;53.302;-6.362;2023-02-21T01:37:06;10.90;99.90
37788;DHT22;23627;53.302;-6.362;2023-02-21T01:39:50;10.90;99.90
37788;DHT22;23627;53.302;-6.362;2023-02-21T01:42:35;10.90;99.90
37788;DHT22;23627;53.302;-6.362;2023-02-21T01:48:07;10.90;99.90
37788;DHT22;23627;53.302;-6.362;2023-02-21T01:50:52;10.80;99.90
37788;DHT22;23627;53.302;-6.362;2023-02-21T01:53:36;10.80;99.90
37788;DHT22;23627;53.302;-6.362;2023-02-21T01:56:20;10.80;99.90
37788;DHT22;23627;53.302;-6.362;2023-02-21T01:59:04;10.80;99.90
37788;DHT22;23627;53.302;-6.362;2023-02-21T02:01:52;10.80;99.90
37788;DHT22;23627;53.302;-6.362;2023-02-21T02:04:37;10.80;99.90
37788;DHT22;23627;53.302;-6.362;2023-02-21T02:07:22;10.80;99.90
37788;DHT22;23627;53.302;-6.362;2023-02-21T02:10:06;10.80;99.90
37788;DHT22;23627;53.302;-6.362;2023-02-21T02:12:55;10.80;99.90
37788;DHT22;23627;53.302;-6.362;2023-02-21T02:15:29;10.80;99.90
37788;DHT22;23627;53.302;-6.362;2023-02-21T02:18:06;10.80;99.90
37788;DHT22;23627;53.302;-6.362;2023-02-21T02:25:59;10.80;99.90
37788;DHT22;23627;53.302;-6.362;2023-02-21T02:36:11;10.80;99.90
37788;DHT22;23627;53.302;-6.362;2023-02-21T02:46:18;10.80;99.90
37788;DHT22;23627;53.302;-6.362;2023-02-21T02:49:01;10.70;99.90
37788;DHT22;23627;53.302;-6.362;2023-02-21T02:51:27;10.80;99.90
37788;DHT22;23627;53.302;-6.362;2023-02-21T02:53:53;10.80;99.90
37788;DHT22;23627;53.302;-6.362;2023-02-21T02:56:19;10.70;99.90
37788;DHT22;23627;53.302;-6.362;2023-02-21T03:04:21;10.70;99.90
37788;DHT22;23627;53.302;-6.362;2023-02-21T03:09:25;10.70;99.90
37788;DHT22;23627;53.302;-6.362;2023-02-21T03:14:19;10.70;99.90
37788;DHT22;23627;53.302;-6.362;2023-02-21T03:16:46;10.70;99.90
37788;DHT22;23627;53.302;-6.362;2023-02-21T03:19:18;10.70;99.90
37788;DHT22;23627;53.302;-6.362;2023-02-21T03:21:49;10.70;99.90
37788;DHT22;23627;53.302;-6.362;2023-02-21T03:24:16;10.70;99.90
37788;DHT22;23627;53.302;-6.362;2023-02-21T03:26:43;10.70;99.90
37788;DHT22;23627;53.302;-6.362;2023-02-21T03:29:11;10.70;99.90
37788;DHT22;23627;53.302;-6.362;2023-02-21T03:31:48;10.70;99.90
37788;DHT22;23627;53.302;-6.362;2023-02-21T03:34:18;10.70;99.90
37788;DHT22;23627;53.302;-6.362;2023-02-21T03:36:44;10.70;99.90
37788;DHT22;23627;53.302;-6.362;2023-02-21T03:39:10;10.70;99.90
37788;DHT22;23627;53.302;-6.362;2023-02-21T03:41:36;10.70;99.90
37788;DHT22;23627;53.302;-6.362;2023-02-21T03:44:01;10.70;99.90
37788;DHT22;23627;53.302;-6.362;2023-02-21T03:46:27;10.60;99.90
37788;DHT22;23627;53.302;-6.362;2023-02-21T03:48:52;10.60;99.90
37788;DHT22;23627;53.302;-6.362;2023-02-21T03:51:18;10.60;99.90
37788;DHT22;23627;53.302;-6.362;2023-02-21T03:53:44;10.60;99.90
37788;DHT22;23627;53.302;-6.362;2023-02-21T03:56:09;10.60;99.90
37788;DHT22;23627;53.302;-6.362;2023-02-21T03:58:35;10.60;99.90
37788;DHT22;23627;53.302;-6.362;2023-02-21T04:01:00;10.60;99.90
37788;DHT22;23627;53.302;-6.362;2023-02-21T04:03:26;10.60;99.90
37788;DHT22;23627;53.302;-6.362;2023-02-21T04:05:51;10.60;99.90
37788;DHT22;23627;53.302;-6.362;2023-02-21T04:08:17;10.60;99.90
37788;DHT22;23627;53.302;-6.362;2023-02-21T04:10:43;10.60;99.90
37788;DHT22;23627;53.302;-6.362;2023-02-21T04:13:08;10.60;99.90
37788;DHT22;23627;53.302;-6.362;2023-02-21T04:15:34;10.60;99.90
37788;DHT22;23627;53.302;-6.362;2023-02-21T04:18:00;10.50;99.90
37788;DHT22;23627;53.302;-6.362;2023-02-21T04:20:26;10.50;99.90
37788;DHT22;23627;53.302;-6.362;2023-02-21T04:22:51;10.50;99.90
37788;DHT22;23627;53.302;-6.362;2023-02-21T04:25:17;10.50;99.90
37788;DHT22;23627;53.302;-6.362;2023-02-21T04:27:43;10.50;99.90
37788;DHT22;23627;53.302;-6.362;2023-02-21T04:30:08;10.50;99.90
37788;DHT22;23627;53.302;-6.362;2023-02-21T04:32:34;10.50;99.90
37788;DHT22;23627;53.302;-6.362;2023-02-21T04:35:00;10.50;99.90
37788;DHT22;23627;53.302;-6.362;2023-02-21T04:37:25;10.50;99.90
37788;DHT22;23627;53.302;-6.362;2023-02-21T04:39:51;10.40;99.90
37788;DHT22;23627;53.302;-6.362;2023-02-21T04:42:17;10.40;99.90
37788;DHT22;23627;53.302;-6.362;2023-02-21T04:44:42;10.40;99.90
37788;DHT22;23627;53.302;-6.362;2023-02-21T04:47:08;10.40;99.90
37788;DHT22;23627;53.302;-6.362;2023-02-21T04:49:33;10.40;99.90
37788;DHT22;23627;53.302;-6.362;2023-02-21T04:51:59;10.40;99.90
37788;DHT22;23627;53.302;-6.362;2023-02-21T04:54:24;10.40;99.90
37788;DHT22;23627;53.302;-6.362;2023-02-21T04:56:50;10.30;99.90
37788;DHT22;23627;53.302;-6.362;2023-02-21T04:59:16;10.30;99.90
37788;DHT22;23627;53.302;-6.362;2023-02-21T05:01:41;10.30;99.90
37788;DHT22;23627;53.302;-6.362;2023-02-21T05:04:07;10.30;99.90
37788;DHT22;23627;53.302;-6.362;2023-02-21T05:06:32;10.30;99.90
37788;DHT22;23627;53.302;-6.362;2023-02-21T05:08:58;10.20;99.90
37788;DHT22;23627;53.302;-6.362;2023-02-21T05:11:24;10.20;99.90
37788;DHT22;23627;53.302;-6.362;2023-02-21T05:13:50;10.20;99.90
37788;DHT22;23627;53.302;-6.362;2023-02-21T05:16:16;10.20;99.90
37788;DHT22;23627;53.302;-6.362;2023-02-21T05:18:42;10.10;99.90
37788;DHT22;23627;53.302;-6.362;2023-02-21T05:21:08;10.10;99.90
37788;DHT22;23627;53.302;-6.362;2023-02-21T05:23:34;10.10;99.90
37788;DHT22;23627;53.302;-6.362;2023-02-21T05:26:04;10.10;99.90
37788;DHT22;23627;53.302;-6.362;2023-02-21T05:28:30;10.10;99.90
37788;DHT22;23627;53.302;-6.362;2023-02-21T05:30:56;10.10;99.90
37788;DHT22;23627;53.302;-6.362;2023-02-21T05:33:22;10.10;99.90
37788;DHT22;23627;53.302;-6.362;2023-02-21T05:35:48;10.10;99.90
37788;DHT22;23627;53.302;-6.362;2023-02-21T05:38:15;10.10;99.90
37788;DHT22;23627;53.302;-6.362;2023-02-21T05:40:40;10.10;99.90
37788;DHT22;23627;53.302;-6.362;2023-02-21T05:43:06;10.00;99.90
37788;DHT22;23627;53.302;-6.362;2023-02-21T05:45:32;10.00;99.90
37788;DHT22;23627;53.302;-6.362;2023-02-21T05:47:57;10.00;99.90
37788;DHT22;23627;53.302;-6.362;2023-02-21T05:50:26;10.00;99.90
37788;DHT22;23627;53.302;-6.362;2023-02-21T05:52:52;10.00;99.90
37788;DHT22;23627;53.302;-6.362;2023-02-21T05:55:17;10.00;99.90
37788;DHT22;23627;53.302;-6.362;2023-02-21T05:57:43;10.00;99.90
37788;DHT22;23627;53.302;-6.362;2023-02-21T06:02:40;9.90;99.90
37788;DHT22;23627;53.302;-6.362;2023-02-21T06:05:06;9.90;99.90
37788;DHT22;23627;53.302;-6.362;2023-02-21T06:07:32;9.90;99.90
37788;DHT22;23627;53.302;-6.362;2023-02-21T06:09:57;9.90;99.90
37788;DHT22;23627;53.302;-6.362;2023-02-21T06:12:23;9.90;99.90
37788;DHT22;23627;53.302;-6.362;2023-02-21T06:14:48;9.80;99.90
37788;DHT22;23627;53.302;-6.362;2023-02-21T06:17:14;9.80;99.90
37788;DHT22;23627;53.302;-6.362;2023-02-21T06:19:40;9.80;99.90
37788;DHT22;23627;53.302;-6.362;2023-02-21T06:22:05;9.80;99.90
37788;DHT22;23627;53.302;-6.362;2023-02-21T06:24:31;9.80;99.90
37788;DHT22;23627;53.302;-6.362;2023-02-21T06:26:56;9.80;99.90
37788;DHT22;23627;53.302;-6.362;2023-02-21T06:29:22;9.70;99.90
37788;DHT22;23627;53.302;-6.362;2023-02-21T06:31:48;9.70;99.90
37788;DHT22;23627;53.302;-6.362;2023-02-21T06:34:13;9.70;99.90
37788;DHT22;23627;53.302;-6.362;2023-02-21T06:36:39;9.70;99.90
37788;DHT22;23627;53.302;-6.362;2023-02-21T06:39:05;9.70;99.90
37788;DHT22;23627;53.302;-6.362;2023-02-21T06:41:32;9.70;99.90
37788;DHT22;23627;53.302;-6.362;2023-02-21T06:43:58;9.70;99.90
37788;DHT22;23627;53.302;-6.362;2023-02-21T06:46:25;9.70;99.90
37788;DHT22;23627;53.302;-6.362;2023-02-21T06:48:51;9.70;99.90
37788;DHT22;23627;53.302;-6.362;2023-02-21T06:51:17;9.70;99.90
37788;DHT22;23627;53.302;-6.362;2023-02-21T06:53:44;9.70;99.90
37788;DHT22;23627;53.302;-6.362;2023-02-21T06:56:10;9.80;99.90
37788;DHT22;23627;53.302;-6.362;2023-02-21T06:58:35;9.80;99.90
37788;DHT22;23627;53.302;-6.362;2023-02-21T07:01:01;9.80;99.90
37788;DHT22;23627;53.302;-6.362;2023-02-21T07:06:29;9.80;99.90
37788;DHT22;23627;53.302;-6.362;2023-02-21T07:08:57;9.90;99.90
37788;DHT22;23627;53.302;-6.362;2023-02-21T07:11:23;9.90;99.90
37788;DHT22;23627;53.302;-6.362;2023-02-21T07:13:49;9.90;99.90
37788;DHT22;23627;53.302;-6.362;2023-02-21T07:16:16;9.90;99.90
37788;DHT22;23627;53.302;-6.362;2023-02-21T07:18:42;10.00;99.90
37788;DHT22;23627;53.302;-6.362;2023-02-21T07:21:08;10.00;99.90
37788;DHT22;23627;53.302;-6.362;2023-02-21T07:23:34;10.00;99.90
37788;DHT22;23627;53.302;-6.362;2023-02-21T07:25:59;10.00;99.90
37788;DHT22;23627;53.302;-6.362;2023-02-21T07:28:25;10.00;99.90
37788;DHT22;23627;53.302;-6.362;2023-02-21T07:30:50;10.00;99.90
37788;DHT22;23627;53.302;-6.362;2023-02-21T07:33:19;10.00;99.90
37788;DHT22;23627;53.302;-6.362;2023-02-21T07:35:48;10.00;99.90
37788;DHT22;23627;53.302;-6.362;2023-02-21T07:38:22;10.00;99.90
37788;DHT22;23627;53.302;-6.362;2023-02-21T07:40:53;10.00;99.90
37788;DHT22;23627;53.302;-6.362;2023-02-21T07:43:19;10.00;99.90
37788;DHT22;23627;53.302;-6.362;2023-02-21T07:45:47;10.00;99.90
37788;DHT22;23627;53.302;-6.362;2023-02-21T07:48:13;10.00;99.90
37788;DHT22;23627;53.302;-6.362;2023-02-21T07:50:39;10.00;99.90
37788;DHT22;23627;53.302;-6.362;2023-02-21T07:53:05;10.00;99.90
37788;DHT22;23627;53.302;-6.362;2023-02-21T07:55:30;10.10;99.90
37788;DHT22;23627;53.302;-6.362;2023-02-21T07:57:57;10.00;99.90
37788;DHT22;23627;53.302;-6.362;2023-02-21T08:00:23;10.10;99.90
37788;DHT22;23627;53.302;-6.362;2023-02-21T08:02:49;10.10;99.90
37788;DHT22;23627;53.302;-6.362;2023-02-21T08:05:16;10.10;99.90
37788;DHT22;23627;53.302;-6.362;2023-02-21T08:07:42;10.10;99.90
37788;DHT22;23627;53.302;-6.362;2023-02-21T08:10:08;10.10;99.90
37788;DHT22;23627;53.302;-6.362;2023-02-21T08:12:34;10.10;99.90
37788;DHT22;23627;53.302;-6.362;2023-02-21T08:14:59;10.10;99.90
37788;DHT22;23627;53.302;-6.362;2023-02-21T08:17:25;10.10;99.90
37788;DHT22;23627;53.302;-6.362;2023-02-21T08:19:51;10.10;99.90
37788;DHT22;23627;53.302;-6.362;2023-02-21T08:22:17;10.10;99.90
37788;DHT22;23627;53.302;-6.362;2023-02-21T08:24:42;10.20;99.90
37788;DHT22;23627;53.302;-6.362;2023-02-21T08:27:08;10.20;99.90
37788;DHT22;23627;53.302;-6.362;2023-02-21T08:29:33;10.20;99.90
37788;DHT22;23627;53.302;-6.362;2023-02-21T08:31:59;10.20;99.90
37788;DHT22;23627;53.302;-6.362;2023-02-21T08:34:25;10.20;99.90
37788;DHT22;23627;53.302;-6.362;2023-02-21T08:36:53;10.20;99.90
37788;DHT22;23627;53.302;-6.362;2023-02-21T08:39:19;10.30;99.90
37788;DHT22;23627;53.302;-6.362;2023-02-21T08:41:45;10.30;99.90
37788;DHT22;23627;53.302;-6.362;2023-02-21T08:44:15;10.30;99.90
37788;DHT22;23627;53.302;-6.362;2023-02-21T08:46:41;10.30;99.90
37788;DHT22;23627;53.302;-6.362;2023-02-21T08:49:07;10.30;99.90
37788;DHT22;23627;53.302;-6.362;2023-02-21T08:51:33;10.30;99.90
37788;DHT22;23627;53.302;-6.362;2023-02-21T08:53:59;10.40;99.90
37788;DHT22;23627;53.302;-6.362;2023-02-21T08:56:26;10.40;99.90
37788;DHT22;23627;53.302;-6.362;2023-02-21T08:58:52;10.40;99.90
37788;DHT22;23627;53.302;-6.362;2023-02-21T09:01:20;10.40;99.90
37788;DHT22;23627;53.302;-6.362;2023-02-21T09:03:46;10.50;99.90
37788;DHT22;23627;53.302;-6.362;2023-02-21T09:06:12;10.50;99.90
37788;DHT22;23627;53.302;-6.362;2023-02-21T09:08:37;10.60;99.90
37788;DHT22;23627;53.302;-6.362;2023-02-21T09:11:05;10.60;99.90
37788;DHT22;23627;53.302;-6.362;2023-02-21T09:13:30;10.60;99.90
37788;DHT22;23627;53.302;-6.362;2023-02-21T09:15:57;10.70;99.90
37788;DHT22;23627;53.302;-6.362;2023-02-21T09:18:23;10.80;99.90
37788;DHT22;23627;53.302;-6.362;2023-02-21T09:20:49;10.90;99.90
37788;DHT22;23627;53.302;-6.362;2023-02-21T09:23:17;11.00;99.90
37788;DHT22;23627;53.302;-6.362;2023-02-21T09:25:46;11.10;99.90
37788;DHT22;23627;53.302;-6.362;2023-02-21T09:28:13;11.20;99.90
37788;DHT22;23627;53.302;-6.362;2023-02-21T09:30:39;11.30;99.90
37788;DHT22;23627;53.302;-6.362;2023-02-21T09:33:05;11.40;99.90
37788;DHT22;23627;53.302;-6.362;2023-02-21T09:35:30;11.40;99.90
37788;DHT22;23627;53.302;-6.362;2023-02-21T09:37:57;11.50;99.90
37788;DHT22;23627;53.302;-6.362;2023-02-21T09:40:26;11.50;99.90
37788;DHT22;23627;53.302;-6.362;2023-02-21T09:42:55;11.60;99.90
37788;DHT22;23627;53.302;-6.362;2023-02-21T09:45:21;11.60;99.90
37788;DHT22;23627;53.302;-6.362;2023-02-21T09:47:48;11.60;99.90
37788;DHT22;23627;53.302;-6.362;2023-02-21T09:50:17;11.60;99.90
37788;DHT22;23627;53.302;-6.362;2023-02-21T09:52:43;11.60;99.90
37788;DHT22;23627;53.302;-6.362;2023-02-21T09:55:28;11.70;99.90
37788;DHT22;23627;53.302;-6.362;2023-02-21T09:57:54;11.70;99.90
37788;DHT22;23627;53.302;-6.362;2023-02-21T10:00:22;11.70;99.90
37788;DHT22;23627;53.302;-6.362;2023-02-21T10:10:32;12.00;99.90
37788;DHT22;23627;53.302;-6.362;2023-02-21T10:20:31;12.50;99.90
37788;DHT22;23627;53.302;-6.362;2023-02-21T10:22:57;12.70;99.90
37788;DHT22;23627;53.302;-6.362;2023-02-21T10:27:51;12.80;99.90
37788;DHT22;23627;53.302;-6.362;2023-02-21T10:32:51;13.00;99.90
37788;DHT22;23627;53.302;-6.362;2023-02-21T10:35:18;12.90;99.90
37788;DHT22;23627;53.302;-6.362;2023-02-21T10:37:45;13.00;99.90
37788;DHT22;23627;53.302;-6.362;2023-02-21T10:42:59;12.90;99.90
37788;DHT22;23627;53.302;-6.362;2023-02-21T10:45:28;12.90;99.90
37788;DHT22;23627;53.302;-6.362;2023-02-21T10:50:35;13.00;99.90
37788;DHT22;23627;53.302;-6.362;2023-02-21T10:53:00;13.10;99.90
37788;DHT22;23627;53.302;-6.362;2023-02-21T10:55:26;13.20;99.90
37788;DHT22;23627;53.302;-6.362;2023-02-21T10:57:55;13.20;99.90
37788;DHT22;23627;53.302;-6.362;2023-02-21T11:00:34;13.30;99.90
37788;DHT22;23627;53.302;-6.362;2023-02-21T11:03:12;13.40;99.90
37788;DHT22;23627;53.302;-6.362;2023-02-21T11:05:46;13.40;99.90
37788;DHT22;23627;53.302;-6.362;2023-02-21T11:08:12;13.40;99.90
37788;DHT22;23627;53.302;-6.362;2023-02-21T11:10:40;13.50;99.90
37788;DHT22;23627;53.302;-6.362;2023-02-21T11:15:35;13.60;99.90
37788;DHT22;23627;53.302;-6.362;2023-02-21T11:18:02;13.60;99.90
37788;DHT22;23627;53.302;-6.362;2023-02-21T11:20:28;13.60;99.90
37788;DHT22;23627;53.302;-6.362;2023-02-21T11:22:54;13.70;99.90
37788;DHT22;23627;53.302;-6.362;2023-02-21T11:25:27;13.60;99.90
37788;DHT22;23627;53.302;-6.362;2023-02-21T11:28:00;13.60;99.90
37788;DHT22;23627;53.302;-6.362;2023-02-21T11:30:26;13.50;99.90
37788;DHT22;23627;53.302;-6.362;2023-02-21T11:32:56;13.40;99.90
37788;DHT22;23627;53.302;-6.362;2023-02-21T11:37:55;13.40;99.90
37788;DHT22;23627;53.302;-6.362;2023-02-21T11:40:27;13.40;99.90
37788;DHT22;23627;53.302;-6.362;2023-02-21T11:43:08;13.30;99.90
37788;DHT22;23627;53.302;-6.362;2023-02-21T11:45:34;13.20;99.90
37788;DHT22;23627;53.302;-6.362;2023-02-21T11:48:01;13.20;99.90
37788;DHT22;23627;53.302;-6.362;2023-02-21T11:50:29;13.20;99.90
37788;DHT22;23627;53.302;-6.362;2023-02-21T11:53:10;13.10;99.90
37788;DHT22;23627;53.302;-6.362;2023-02-21T11:55:39;13.00;99.90
37788;DHT22;23627;53.302;-6.362;2023-02-21T11:58:25;13.00;99.90
37788;DHT22;23627;53.302;-6.362;2023-02-21T12:01:12;13.00;99.90
37788;DHT22;23627;53.302;-6.362;2023-02-21T12:03:56;13.00;99.90
37788;DHT22;23627;53.302;-6.362;2023-02-21T12:06:27;12.90;99.90
37788;DHT22;23627;53.302;-6.362;2023-02-21T12:21:58;13.00;99.90
37788;DHT22;23627;53.302;-6.362;2023-02-21T12:27:17;12.90;99.90
37788;DHT22;23627;53.302;-6.362;2023-02-21T12:37:56;12.80;99.90
37788;DHT22;23627;53.302;-6.362;2023-02-21T12:46:24;12.80;99.90
37788;DHT22;23627;53.302;-6.362;2023-02-21T12:50:47;12.70;99.90
37788;DHT22;23627;53.302;-6.362;2023-02-21T12:53:16;12.80;99.90
37788;DHT22;23627;53.302;-6.362;2023-02-21T12:55:50;12.90;99.90
37788;DHT22;23627;53.302;-6.362;2023-02-21T13:00:43;13.00;99.90
37788;DHT22;23627;53.302;-6.362;2023-02-21T13:05:54;13.00;99.90
37788;DHT22;23627;53.302;-6.362;2023-02-21T13:08:27;13.00;99.90
37788;DHT22;23627;53.302;-6.362;2023-02-21T13:10:59;13.00;99.90
37788;DHT22;23627;53.302;-6.362;2023-02-21T13:13:28;13.10;99.90
37788;DHT22;23627;53.302;-6.362;2023-02-21T13:15:56;13.20;99.90
37788;DHT22;23627;53.302;-6.362;2023-02-21T13:18:24;13.30;99.90
37788;DHT22;23627;53.302;-6.362;2023-02-21T13:23:48;13.30;99.90
37788;DHT22;23627;53.302;-6.362;2023-02-21T13:28:40;13.20;99.90
37788;DHT22;23627;53.302;-6.362;2023-02-21T13:31:06;13.30;99.90
37788;DHT22;23627;53.302;-6.362;2023-02-21T13:33:42;13.40;99.90
37788;DHT22;23627;53.302;-6.362;2023-02-21T13:38:43;13.40;99.90
37788;DHT22;23627;53.302;-6.362;2023-02-21T13:41:11;13.40;99.90
37788;DHT22;23627;53.302;-6.362;2023-02-21T13:43:45;13.40;99.90
37788;DHT22;23627;53.302;-6.362;2023-02-21T13:51:49;13.40;99.90
37788;DHT22;23627;53.302;-6.362;2023-02-21T13:54:21;13.30;99.90
37788;DHT22;23627;53.302;-6.362;2023-02-21T13:56:47;13.30;99.90
37788;DHT22;23627;53.302;-6.362;2023-02-21T14:01:48;13.40;99.90
37788;DHT22;23627;53.302;-6.362;2023-02-21T14:06:59;13.50;99.90
37788;DHT22;23627;53.302;-6.362;2023-02-21T14:09:24;13.60;99.90
37788;DHT22;23627;53.302;-6.362;2023-02-21T14:11:50;13.60;99.90
37788;DHT22;23627;53.302;-6.362;2023-02-21T14:14:21;13.60;99.90
37788;DHT22;23627;53.302;-6.362;2023-02-21T14:16:49;13.70;99.90
37788;DHT22;23627;53.302;-6.362;2023-02-21T14:19:23;13.70;99.90
37788;DHT22;23627;53.302;-6.362;2023-02-21T14:21:54;13.70;99.90
37788;DHT22;23627;53.302;-6.362;2023-02-21T14:24:27;13.70;99.90
37788;DHT22;23627;53.302;-6.362;2023-02-21T14:26:54;13.70;99.90
37788;DHT22;23627;53.302;-6.362;2023-02-21T14:34:29;13.70;99.90
37788;DHT22;23627;53.302;-6.362;2023-02-21T14:36:57;13.70;99.90
37788;DHT22;23627;53.302;-6.362;2023-02-21T14:39:23;13.80;99.90
37788;DHT22;23627;53.302;-6.362;2023-02-21T14:44:23;13.80;99.90
37788;DHT22;23627;53.302;-6.362;2023-02-21T14:57:19;13.80;99.90
37788;DHT22;23627;53.302;-6.362;2023-02-21T15:05:14;13.70;99.90
37788;DHT22;23627;53.302;-6.362;2023-02-21T15:12:42;13.50;99.90
37788;DHT22;23627;53.302;-6.362;2023-02-21T15:15:13;13.50;99.90
37788;DHT22;23627;53.302;-6.362;2023-02-21T15:17:39;13.50;99.90
37788;DHT22;23627;53.302;-6.362;2023-02-21T15:20:17;13.50;99.90
37788;DHT22;23627;53.302;-6.362;2023-02-21T15:22:42;13.50;99.90
37788;DHT22;23627;53.302;-6.362;2023-02-21T15:27:50;13.50;99.90
37788;DHT22;23627;53.302;-6.362;2023-02-21T15:32:58;13.60;99.90
37788;DHT22;23627;53.302;-6.362;2023-02-21T15:35:25;13.60;99.90
37788;DHT22;23627;53.302;-6.362;2023-02-21T15:37:52;13.60;99.90
37788;DHT22;23627;53.302;-6.362;2023-02-21T15:40:19;13.60;99.90
37788;DHT22;23627;53.302;-6.362;2023-02-21T15:42:46;13.50;99.90
37788;DHT22;23627;53.302;-6.362;2023-02-21T15:45:32;13.50;99.90
37788;DHT22;23627;53.302;-6.362;2023-02-21T15:47:59;13.40;99.90
37788;DHT22;23627;53.302;-6.362;2023-02-21T15:50:35;13.40;99.90
37788;DHT22;23627;53.302;-6.362;2023-02-21T15:53:35;13.40;99.90
37788;DHT22;23627;53.302;-6.362;2023-02-21T15:55:54;13.30;99.90
37788;DHT22;23627;53.302;-6.362;2023-02-21T15:58:39;13.30;99.90
37788;DHT22;23627;53.302;-6.362;2023-02-21T16:01:06;13.40;99.90
37788;DHT22;23627;53.302;-6.362;2023-02-21T16:03:33;13.40;99.90
37788;DHT22;23627;53.302;-6.362;2023-02-21T16:14:03;13.60;99.90
37788;DHT22;23627;53.302;-6.362;2023-02-21T16:16:35;13.60;99.90
37788;DHT22;23627;53.302;-6.362;2023-02-21T16:19:00;13.60;99.90
37788;DHT22;23627;53.302;-6.362;2023-02-21T16:21:26;13.60;99.90
37788;DHT22;23627;53.302;-6.362;2023-02-21T16:23:52;13.50;99.90
37788;DHT22;23627;53.302;-6.362;2023-02-21T16:26:19;13.50;99.90
37788;DHT22;23627;53.302;-6.362;2023-02-21T16:28:49;13.40;99.90
37788;DHT22;23627;53.302;-6.362;2023-02-21T16:31:15;13.40;99.90
37788;DHT22;23627;53.302;-6.362;2023-02-21T16:33:41;13.30;99.90
37788;DHT22;23627;53.302;-6.362;2023-02-21T16:36:08;13.30;99.90
37788;DHT22;23627;53.302;-6.362;2023-02-21T16:38:34;13.20;99.90
37788;DHT22;23627;53.302;-6.362;2023-02-21T16:41:00;13.20;99.90
37788;DHT22;23627;53.302;-6.362;2023-02-21T16:43:26;13.10;99.90
37788;DHT22;23627;53.302;-6.362;2023-02-21T16:45:54;13.00;99.90
37788;DHT22;23627;53.302;-6.362;2023-02-21T16:48:21;13.00;99.90
37788;DHT22;23627;53.302;-6.362;2023-02-21T16:50:49;12.80;99.90
37788;DHT22;23627;53.302;-6.362;2023-02-21T16:53:15;12.80;99.90
37788;DHT22;23627;53.302;-6.362;2023-02-21T16:55:41;12.70;99.90
37788;DHT22;23627;53.302;-6.362;2023-02-21T16:58:22;12.60;99.90
37788;DHT22;23627;53.302;-6.362;2023-02-21T17:00:51;12.50;99.90
37788;DHT22;23627;53.302;-6.362;2023-02-21T17:03:17;12.40;99.90
37788;DHT22;23627;53.302;-6.362;2023-02-21T17:05:43;12.40;99.90
37788;DHT22;23627;53.302;-6.362;2023-02-21T17:08:09;12.30;99.90
37788;DHT22;23627;53.302;-6.362;2023-02-21T17:10:35;12.20;99.90
37788;DHT22;23627;53.302;-6.362;2023-02-21T17:13:00;12.10;99.90
37788;DHT22;23627;53.302;-6.362;2023-02-21T17:15:28;12.10;99.90
37788;DHT22;23627;53.302;-6.362;2023-02-21T17:17:54;12.00;99.90
37788;DHT22;23627;53.302;-6.362;2023-02-21T17:20:20;12.00;99.90
37788;DHT22;23627;53.302;-6.362;2023-02-21T17:22:46;11.90;99.90
37788;DHT22;23627;53.302;-6.362;2023-02-21T17:25:12;11.90;99.90
37788;DHT22;23627;53.302;-6.362;2023-02-21T17:27:38;11.80;99.90
37788;DHT22;23627;53.302;-6.362;2023-02-21T17:30:04;11.80;99.90
37788;DHT22;23627;53.302;-6.362;2023-02-21T17:32:30;11.80;99.90
37788;DHT22;23627;53.302;-6.362;2023-02-21T17:34:56;11.70;99.90
37788;DHT22;23627;53.302;-6.362;2023-02-21T17:37:22;11.70;99.90
37788;DHT22;23627;53.302;-6.362;2023-02-21T17:39:51;11.70;99.90
37788;DHT22;23627;53.302;-6.362;2023-02-21T17:42:17;11.60;99.90
37788;DHT22;23627;53.302;-6.362;2023-02-21T17:44:43;11.60;99.90
37788;DHT22;23627;53.302;-6.362;2023-02-21T17:47:11;11.60;99.90
37788;DHT22;23627;53.302;-6.362;2023-02-21T17:49:37;11.50;99.90
37788;DHT22;23627;53.302;-6.362;2023-02-21T17:52:03;11.50;99.90
37788;DHT22;23627;53.302;-6.362;2023-02-21T17:54:34;11.50;99.90
37788;DHT22;23627;53.302;-6.362;2023-02-21T17:57:00;11.40;99.90
37788;DHT22;23627;53.302;-6.362;2023-02-21T17:59:25;11.40;99.90
37788;DHT22;23627;53.302;-6.362;2023-02-21T18:01:54;11.40;99.90
37788;DHT22;23627;53.302;-6.362;2023-02-21T18:04:20;11.40;99.90
37788;DHT22;23627;53.302;-6.362;2023-02-21T18:06:46;11.30;99.90
37788;DHT22;23627;53.302;-6.362;2023-02-21T18:09:14;11.30;99.90
37788;DHT22;23627;53.302;-6.362;2023-02-21T18:11:40;11.30;99.90
37788;DHT22;23627;53.302;-6.362;2023-02-21T18:14:11;11.30;99.90
37788;DHT22;23627;53.302;-6.362;2023-02-21T18:16:37;11.30;99.90
37788;DHT22;23627;53.302;-6.362;2023-02-21T18:19:02;11.20;99.90
37788;DHT22;23627;53.302;-6.362;2023-02-21T18:21:30;11.20;99.90
37788;DHT22;23627;53.302;-6.362;2023-02-21T18:23:56;11.20;99.90